Main page
METAR-TAF:

METAR-TAF

Airports :

San Sebastián Airport

San Sebastián, Spain

latitude: 43-21N, longitude: 001-48W, elevation: 5 m

Current weather observation

The report was made 17 minutes ago, at 23:00 UTC
Wind 1 kt from variable directions
Temperature 9°C
Humidity 81%
Pressure 1015 hPa
Visibility 10 km or more
no clouds below 1500 m and no cumulonimbus

METAR: LESO 242300Z AUTO VRB01KT CAVOK 09/06 Q1015

Time: 00:17 (23:17 UTC)

Forecast

The report was made 6 hours and 17 minutes ago, at 17:00 UTC
Forecast valid from 24 at 18 UTC to 25 at 18 UTC
Wind 5 kt from variable directions
Visibility 10 km or more
no clouds below 1500 m and no cumulonimbus
Temporary
from 24 at 18 UTC to 25 at 18 UTC
Wind 10 kt from the South

TAF: LESO 241700Z 2418/2518 VRB05KT CAVOK TX16/2514Z TN11/2505Z TEMPO 2418/2518 18010KT

Weather observations and forecasts of more than 4000 airports (METAR and TAF reports).

The available stations are represented by yellow and red dots on the map.

Hover mouse over dot to see the name of the station.

Then click to see weather observations and forecasts.

To change the map : click on the green buttons with a black cross to zoom in, on the green button with a dash to zoom out, or on the green arrows for adjacent maps.


METAR-TAF: